Terminal Aerodrome Forecast
Issued by NWS Twin Cities, MN

Home | Current Version | Previous Version | Text Only | Print | Product List | Glossary On
Versions: 1 2 3 4 5 6 7 8 9 10 11 12 13 14 15 16 17 18 19 20 21 22 23 24 25 26 27 28 29 30 31 32 33 34
000
FTUS43 KMPX 271418 AAA
TAFMSP
TAF AMD
KMSP 271418Z 2714/2818 02003KT P6SM SKC
     FM272200 19004KT P6SM BKN120
     FM280500 VRB03KT P6SM SKC
     FM281300 19005KT P6SM SCT120=

USA.gov is the U.S. government's official web portal to all federal, state and local government web resources and services.